sensor_id;sensor_type;location;lat;lon;timestamp;pressure;altitude;pressure_sealevel;temperature;humidity
45323;BME280;31382;50.200;8.674;2023-02-27T00:02:57;101222.69;;;2.16;50.99
45323;BME280;31382;50.200;8.674;2023-02-27T00:07:59;101221.00;;;2.15;50.85
45323;BME280;31382;50.200;8.674;2023-02-27T00:13:00;101216.06;;;2.09;51.28
45323;BME280;31382;50.200;8.674;2023-02-27T00:18:02;101221.44;;;1.95;51.57
45323;BME280;31382;50.200;8.674;2023-02-27T00:23:05;101220.91;;;1.90;51.91
45323;BME280;31382;50.200;8.674;2023-02-27T00:28:07;101225.06;;;1.79;51.84
45323;BME280;31382;50.200;8.674;2023-02-27T00:33:08;101225.66;;;1.70;52.17
45323;BME280;31382;50.200;8.674;2023-02-27T00:38:09;101224.91;;;1.68;51.96
45323;BME280;31382;50.200;8.674;2023-02-27T00:43:11;101236.91;;;1.59;52.43
45323;BME280;31382;50.200;8.674;2023-02-27T00:48:12;101233.50;;;1.57;51.91
45323;BME280;31382;50.200;8.674;2023-02-27T00:53:13;101242.91;;;1.49;52.94
45323;BME280;31382;50.200;8.674;2023-02-27T00:58:15;101246.19;;;1.38;52.51
45323;BME280;31382;50.200;8.674;2023-02-27T01:03:16;101238.44;;;1.35;52.91
45323;BME280;31382;50.200;8.674;2023-02-27T01:08:18;101242.91;;;1.34;52.66
45323;BME280;31382;50.200;8.674;2023-02-27T01:13:21;101238.47;;;1.21;53.24
45323;BME280;31382;50.200;8.674;2023-02-27T01:18:24;101237.19;;;1.26;53.14
45323;BME280;31382;50.200;8.674;2023-02-27T01:23:25;101239.09;;;1.24;52.75
45323;BME280;31382;50.200;8.674;2023-02-27T01:28:27;101237.19;;;1.12;53.42
45323;BME280;31382;50.200;8.674;2023-02-27T01:33:28;101238.91;;;1.13;53.43
45323;BME280;31382;50.200;8.674;2023-02-27T01:38:29;101234.19;;;1.18;53.47
45323;BME280;31382;50.200;8.674;2023-02-27T01:43:31;101239.38;;;1.19;53.40
45323;BME280;31382;50.200;8.674;2023-02-27T01:48:34;101242.78;;;1.22;54.05
45323;BME280;31382;50.200;8.674;2023-02-27T01:53:40;101238.34;;;1.22;53.75
45323;BME280;31382;50.200;8.674;2023-02-27T01:58:43;101240.22;;;1.20;54.13
45323;BME280;31382;50.200;8.674;2023-02-27T02:04:07;101243.84;;;1.19;53.90
45323;BME280;31382;50.200;8.674;2023-02-27T02:09:11;101240.13;;;1.07;53.64
45323;BME280;31382;50.200;8.674;2023-02-27T02:14:14;101234.09;;;1.05;54.13
45323;BME280;31382;50.200;8.674;2023-02-27T02:19:59;101228.28;;;0.98;53.93
45323;BME280;31382;50.200;8.674;2023-02-27T02:30:45;101234.16;;;0.89;54.23
45323;BME280;31382;50.200;8.674;2023-02-27T02:41:44;101231.88;;;0.83;55.23
45323;BME280;31382;50.200;8.674;2023-02-27T02:47:04;101241.22;;;0.89;55.15
45323;BME280;31382;50.200;8.674;2023-02-27T02:52:24;101235.59;;;0.95;54.68
45323;BME280;31382;50.200;8.674;2023-02-27T02:57:32;101239.00;;;0.97;54.70
45323;BME280;31382;50.200;8.674;2023-02-27T03:03:11;101234.25;;;1.02;54.43
45323;BME280;31382;50.200;8.674;2023-02-27T03:08:21;101231.34;;;1.07;54.93
45323;BME280;31382;50.200;8.674;2023-02-27T03:13:39;101231.34;;;1.07;54.62
45323;BME280;31382;50.200;8.674;2023-02-27T03:18:52;101231.91;;;1.12;54.21
45323;BME280;31382;50.200;8.674;2023-02-27T03:23:58;101233.34;;;1.17;54.33
45323;BME280;31382;50.200;8.674;2023-02-27T03:29:06;101242.78;;;1.22;53.91
45323;BME280;31382;50.200;8.674;2023-02-27T03:34:32;101233.25;;;1.19;54.47
45323;BME280;31382;50.200;8.674;2023-02-27T03:44:54;101243.09;;;1.17;54.24
45323;BME280;31382;50.200;8.674;2023-02-27T03:49:59;101243.09;;;1.17;53.69
45323;BME280;31382;50.200;8.674;2023-02-27T03:55:06;101254.53;;;1.17;54.09
45323;BME280;31382;50.200;8.674;2023-02-27T04:00:13;101258.88;;;1.18;54.11
45323;BME280;31382;50.200;8.674;2023-02-27T04:05:16;101255.94;;;1.09;54.68
45323;BME280;31382;50.200;8.674;2023-02-27T04:10:43;101265.28;;;1.00;54.29
45323;BME280;31382;50.200;8.674;2023-02-27T04:21:14;101271.97;;;0.91;54.16
45323;BME280;31382;50.200;8.674;2023-02-27T04:31:41;101279.00;;;0.76;54.83
45323;BME280;31382;50.200;8.674;2023-02-27T04:36:57;101284.75;;;0.69;55.40
45323;BME280;31382;50.200;8.674;2023-02-27T04:42:08;101283.50;;;0.60;55.91
45323;BME280;31382;50.200;8.674;2023-02-27T04:47:12;101285.66;;;0.53;55.48
45323;BME280;31382;50.200;8.674;2023-02-27T04:52:20;101289.56;;;0.46;55.17
45323;BME280;31382;50.200;8.674;2023-02-27T04:57:35;101289.56;;;0.46;55.74
45323;BME280;31382;50.200;8.674;2023-02-27T05:02:56;101290.84;;;0.39;55.72
45323;BME280;31382;50.200;8.674;2023-02-27T05:08:07;101299.13;;;0.33;55.64
45323;BME280;31382;50.200;8.674;2023-02-27T05:13:12;101304.50;;;0.31;56.21
45323;BME280;31382;50.200;8.674;2023-02-27T05:18:17;101315.19;;;0.30;55.64
45323;BME280;31382;50.200;8.674;2023-02-27T05:23:27;101319.38;;;0.34;56.47
45323;BME280;31382;50.200;8.674;2023-02-27T05:28:35;101324.91;;;0.29;56.09
45323;BME280;31382;50.200;8.674;2023-02-27T05:39:13;101336.66;;;0.24;56.84
45323;BME280;31382;50.200;8.674;2023-02-27T05:44:18;101341.63;;;0.30;56.57
45323;BME280;31382;50.200;8.674;2023-02-27T05:49:32;101349.13;;;0.37;56.66
45323;BME280;31382;50.200;8.674;2023-02-27T05:54:52;101344.34;;;0.44;56.73
45323;BME280;31382;50.200;8.674;2023-02-27T06:00:07;101345.13;;;0.46;56.86
45323;BME280;31382;50.200;8.674;2023-02-27T06:05:13;101359.19;;;0.47;56.50
45323;BME280;31382;50.200;8.674;2023-02-27T06:10:17;101355.50;;;0.49;56.94
45323;BME280;31382;50.200;8.674;2023-02-27T06:15:19;101353.19;;;0.59;56.44
45323;BME280;31382;50.200;8.674;2023-02-27T06:20:21;101355.25;;;0.70;56.50
45323;BME280;31382;50.200;8.674;2023-02-27T06:25:22;101368.06;;;0.77;56.67
45323;BME280;31382;50.200;8.674;2023-02-27T06:30:24;101359.91;;;0.81;56.54
45323;BME280;31382;50.200;8.674;2023-02-27T06:35:26;101365.91;;;0.84;57.27
45323;BME280;31382;50.200;8.674;2023-02-27T06:40:29;101364.63;;;0.91;57.16
45323;BME280;31382;50.200;8.674;2023-02-27T06:45:31;101365.38;;;0.93;56.47
45323;BME280;31382;50.200;8.674;2023-02-27T06:50:32;101370.22;;;1.01;56.41
45323;BME280;31382;50.200;8.674;2023-02-27T06:55:33;101380.19;;;1.12;56.78
45323;BME280;31382;50.200;8.674;2023-02-27T07:00:35;101384.34;;;1.16;56.72
45323;BME280;31382;50.200;8.674;2023-02-27T07:05:36;101372.84;;;1.17;56.72
45323;BME280;31382;50.200;8.674;2023-02-27T07:10:38;101381.03;;;1.12;57.34
45323;BME280;31382;50.200;8.674;2023-02-27T07:15:40;101382.31;;;1.21;57.23
45323;BME280;31382;50.200;8.674;2023-02-27T07:20:41;101376.72;;;1.26;57.19
45323;BME280;31382;50.200;8.674;2023-02-27T07:25:43;101376.19;;;1.35;57.17
45323;BME280;31382;50.200;8.674;2023-02-27T07:30:45;101386.22;;;1.44;57.20
45323;BME280;31382;50.200;8.674;2023-02-27T07:35:47;101380.28;;;1.55;57.48
45323;BME280;31382;50.200;8.674;2023-02-27T07:40:48;101384.16;;;1.64;57.37
45323;BME280;31382;50.200;8.674;2023-02-27T07:45:50;101394.06;;;1.76;57.09
45323;BME280;31382;50.200;8.674;2023-02-27T07:50:52;101400.28;;;1.89;56.82
45323;BME280;31382;50.200;8.674;2023-02-27T07:55:53;101408.44;;;2.01;56.32
45323;BME280;31382;50.200;8.674;2023-02-27T08:00:54;101407.41;;;2.17;56.21
45323;BME280;31382;50.200;8.674;2023-02-27T08:05:56;101402.88;;;2.20;56.23
45323;BME280;31382;50.200;8.674;2023-02-27T08:10:57;101414.22;;;2.22;56.47
45323;BME280;31382;50.200;8.674;2023-02-27T08:15:59;101415.94;;;2.37;55.74
45323;BME280;31382;50.200;8.674;2023-02-27T08:21:00;101420.84;;;2.43;56.38
45323;BME280;31382;50.200;8.674;2023-02-27T08:26:01;101420.81;;;2.57;56.07
45323;BME280;31382;50.200;8.674;2023-02-27T08:31:03;101428.00;;;2.70;55.88
45323;BME280;31382;50.200;8.674;2023-02-27T08:36:05;101441.59;;;2.92;55.31
45323;BME280;31382;50.200;8.674;2023-02-27T08:41:07;101430.09;;;3.19;54.96
45323;BME280;31382;50.200;8.674;2023-02-27T08:46:22;101432.75;;;3.19;54.65
45323;BME280;31382;50.200;8.674;2023-02-27T08:51:24;101426.53;;;3.33;55.12
45323;BME280;31382;50.200;8.674;2023-02-27T08:56:26;101423.22;;;3.29;55.07
45323;BME280;31382;50.200;8.674;2023-02-27T09:01:28;101419.22;;;3.36;54.46
45323;BME280;31382;50.200;8.674;2023-02-27T09:06:35;101433.47;;;3.48;54.17
45323;BME280;31382;50.200;8.674;2023-02-27T09:11:36;101428.16;;;3.61;53.70
45323;BME280;31382;50.200;8.674;2023-02-27T09:16:39;101427.56;;;3.57;53.51
45323;BME280;31382;50.200;8.674;2023-02-27T09:21:40;101421.41;;;3.70;53.17
45323;BME280;31382;50.200;8.674;2023-02-27T09:26:42;101432.03;;;3.83;52.94
45323;BME280;31382;50.200;8.674;2023-02-27T09:31:46;101432.16;;;3.94;52.64
45323;BME280;31382;50.200;8.674;2023-02-27T09:36:48;101441.41;;;4.14;52.55
45323;BME280;31382;50.200;8.674;2023-02-27T09:42:02;101442.84;;;4.56;52.30
45323;BME280;31382;50.200;8.674;2023-02-27T09:47:12;101444.28;;;4.73;51.67
45323;BME280;31382;50.200;8.674;2023-02-27T09:52:14;101449.38;;;5.13;50.94
45323;BME280;31382;50.200;8.674;2023-02-27T09:57:25;101453.06;;;5.35;50.74
45323;BME280;31382;50.200;8.674;2023-02-27T10:02:42;101454.53;;;5.28;50.42
45323;BME280;31382;50.200;8.674;2023-02-27T10:14:05;101443.16;;;5.37;50.13
45323;BME280;31382;50.200;8.674;2023-02-27T10:19:17;101434.41;;;5.35;49.97
45323;BME280;31382;50.200;8.674;2023-02-27T10:24:26;101431.41;;;5.40;49.61
45323;BME280;31382;50.200;8.674;2023-02-27T10:34:32;101437.91;;;5.24;49.33
45323;BME280;31382;50.200;8.674;2023-02-27T10:39:44;101431.72;;;5.24;48.99
45323;BME280;31382;50.200;8.674;2023-02-27T10:44:47;101428.66;;;5.41;48.40
45323;BME280;31382;50.200;8.674;2023-02-27T10:49:53;101433.03;;;5.53;48.22
45323;BME280;31382;50.200;8.674;2023-02-27T10:55:16;101422.91;;;5.70;48.64
45323;BME280;31382;50.200;8.674;2023-02-27T11:00:26;101414.56;;;5.86;48.54
45323;BME280;31382;50.200;8.674;2023-02-27T11:05:34;101395.56;;;6.02;47.08
45323;BME280;31382;50.200;8.674;2023-02-27T11:10:52;101404.66;;;6.33;47.39
45323;BME280;31382;50.200;8.674;2023-02-27T11:16:19;101401.59;;;6.71;46.62
45323;BME280;31382;50.200;8.674;2023-02-27T11:21:26;101390.81;;;6.94;46.38
45323;BME280;31382;50.200;8.674;2023-02-27T11:26:34;101383.44;;;6.86;46.25
45323;BME280;31382;50.200;8.674;2023-02-27T11:31:37;101385.59;;;6.92;46.15
45323;BME280;31382;50.200;8.674;2023-02-27T11:36:44;101377.25;;;6.86;46.11
45323;BME280;31382;50.200;8.674;2023-02-27T11:41:47;101366.28;;;6.89;46.29
45323;BME280;31382;50.200;8.674;2023-02-27T11:46:48;101369.56;;;6.92;45.40
45323;BME280;31382;50.200;8.674;2023-02-27T13:12:10;101305.09;;;8.10;39.57
45323;BME280;31382;50.200;8.674;2023-02-27T13:17:36;101299.50;;;8.33;39.16
45323;BME280;31382;50.200;8.674;2023-02-27T13:22:47;101297.88;;;8.51;38.01
45323;BME280;31382;50.200;8.674;2023-02-27T13:27:57;101290.41;;;8.94;37.55
45323;BME280;31382;50.200;8.674;2023-02-27T13:38:42;101286.41;;;9.75;36.89
45323;BME280;31382;50.200;8.674;2023-02-27T13:43:45;101290.38;;;9.70;37.03
45323;BME280;31382;50.200;8.674;2023-02-27T13:59:22;101279.72;;;10.44;35.25
45323;BME280;31382;50.200;8.674;2023-02-27T14:04:31;101274.75;;;10.67;34.88
45323;BME280;31382;50.200;8.674;2023-02-27T14:09:43;101268.25;;;10.96;35.27
45323;BME280;31382;50.200;8.674;2023-02-27T14:14:47;101284.38;;;10.96;34.45
45323;BME280;31382;50.200;8.674;2023-02-27T14:19:51;101284.53;;;11.12;33.81
45323;BME280;31382;50.200;8.674;2023-02-27T14:24:59;101277.06;;;11.24;33.63
45323;BME280;31382;50.200;8.674;2023-02-27T14:30:22;101276.00;;;11.43;32.76
45323;BME280;31382;50.200;8.674;2023-02-27T14:35:26;101286.31;;;11.47;32.95
45323;BME280;31382;50.200;8.674;2023-02-27T14:45:47;101296.94;;;10.69;33.44
45323;BME280;31382;50.200;8.674;2023-02-27T14:50:51;101291.22;;;10.36;33.56
45323;BME280;31382;50.200;8.674;2023-02-27T14:55:56;101293.50;;;10.03;33.50
45323;BME280;31382;50.200;8.674;2023-02-27T15:01:02;101293.59;;;9.84;33.41
45323;BME280;31382;50.200;8.674;2023-02-27T15:06:12;101291.72;;;9.57;33.60
45323;BME280;31382;50.200;8.674;2023-02-27T15:11:16;101302.06;;;9.32;34.06
45323;BME280;31382;50.200;8.674;2023-02-27T15:16:40;101297.34;;;8.97;34.21
45323;BME280;31382;50.200;8.674;2023-02-27T15:21:55;101292.69;;;8.89;34.24
45323;BME280;31382;50.200;8.674;2023-02-27T15:27:07;101300.44;;;8.82;34.15
45323;BME280;31382;50.200;8.674;2023-02-27T15:32:45;101311.13;;;8.63;34.76
45323;BME280;31382;50.200;8.674;2023-02-27T15:37:55;101310.66;;;8.38;35.43
45323;BME280;31382;50.200;8.674;2023-02-27T15:42:57;101313.25;;;8.09;35.54
45323;BME280;31382;50.200;8.674;2023-02-27T15:48:01;101317.09;;;7.85;35.68
45323;BME280;31382;50.200;8.674;2023-02-27T15:53:17;101318.59;;;7.68;36.13
45323;BME280;31382;50.200;8.674;2023-02-27T15:58:35;101336.69;;;7.55;36.97
45323;BME280;31382;50.200;8.674;2023-02-27T16:03:42;101326.81;;;7.55;36.43
45323;BME280;31382;50.200;8.674;2023-02-27T16:08:51;101337.41;;;7.36;36.95
45323;BME280;31382;50.200;8.674;2023-02-27T16:13:53;101346.47;;;7.24;37.04
45323;BME280;31382;50.200;8.674;2023-02-27T16:18:57;101352.47;;;7.16;37.28
45323;BME280;31382;50.200;8.674;2023-02-27T16:24:19;101362.72;;;7.11;37.52
45323;BME280;31382;50.200;8.674;2023-02-27T16:29:24;101368.19;;;7.09;37.81
45323;BME280;31382;50.200;8.674;2023-02-27T16:34:30;101364.31;;;7.02;38.37
45323;BME280;31382;50.200;8.674;2023-02-27T16:39:48;101384.50;;;6.95;38.01
45323;BME280;31382;50.200;8.674;2023-02-27T16:55:24;101397.66;;;6.87;38.30
45323;BME280;31382;50.200;8.674;2023-02-27T17:00:26;101400.81;;;6.81;38.67
45323;BME280;31382;50.200;8.674;2023-02-27T17:05:27;101406.56;;;6.76;38.19
45323;BME280;31382;50.200;8.674;2023-02-27T17:10:28;101407.78;;;6.72;38.52
45323;BME280;31382;50.200;8.674;2023-02-27T17:15:30;101419.31;;;6.61;38.57
45323;BME280;31382;50.200;8.674;2023-02-27T17:20:31;101414.47;;;6.55;39.27
45323;BME280;31382;50.200;8.674;2023-02-27T17:25:32;101421.75;;;6.42;38.55
45323;BME280;31382;50.200;8.674;2023-02-27T17:30:35;101417.91;;;6.34;38.74
45323;BME280;31382;50.200;8.674;2023-02-27T17:35:36;101430.66;;;6.31;39.16
45323;BME280;31382;50.200;8.674;2023-02-27T17:40:39;101432.09;;;6.24;39.79
45323;BME280;31382;50.200;8.674;2023-02-27T17:45:40;101442.19;;;6.20;39.52
45323;BME280;31382;50.200;8.674;2023-02-27T17:50:42;101439.38;;;6.10;40.29
45323;BME280;31382;50.200;8.674;2023-02-27T17:55:45;101433.91;;;6.01;40.35
45323;BME280;31382;50.200;8.674;2023-02-27T18:00:46;101454.34;;;5.89;40.18
45323;BME280;31382;50.200;8.674;2023-02-27T18:05:51;101456.28;;;5.87;40.63
45323;BME280;31382;50.200;8.674;2023-02-27T18:10:53;101462.09;;;5.81;39.97
45323;BME280;31382;50.200;8.674;2023-02-27T18:15:56;101461.38;;;5.79;40.75
45323;BME280;31382;50.200;8.674;2023-02-27T18:20:59;101462.69;;;5.73;40.64
45323;BME280;31382;50.200;8.674;2023-02-27T18:26:01;101468.97;;;5.72;40.58
45323;BME280;31382;50.200;8.674;2023-02-27T18:31:03;101470.91;;;5.70;40.75
45323;BME280;31382;50.200;8.674;2023-02-27T18:36:04;101461.09;;;5.70;41.09
45323;BME280;31382;50.200;8.674;2023-02-27T18:41:06;101456.94;;;5.66;40.86
45323;BME280;31382;50.200;8.674;2023-02-27T18:46:10;101468.09;;;5.60;41.29
45323;BME280;31382;50.200;8.674;2023-02-27T18:51:14;101464.03;;;5.43;41.80
45323;BME280;31382;50.200;8.674;2023-02-27T18:56:18;101455.72;;;5.24;42.32
45323;BME280;31382;50.200;8.674;2023-02-27T19:01:24;101455.88;;;5.09;42.72
45323;BME280;31382;50.200;8.674;2023-02-27T19:06:26;101456.44;;;5.02;42.37
45323;BME280;31382;50.200;8.674;2023-02-27T19:11:29;101470.25;;;4.83;43.10
45323;BME280;31382;50.200;8.674;2023-02-27T19:16:35;101474.44;;;4.74;43.47
45323;BME280;31382;50.200;8.674;2023-02-27T19:21:36;101474.25;;;4.64;44.08
45323;BME280;31382;50.200;8.674;2023-02-27T19:26:38;101476.72;;;4.54;43.81
45323;BME280;31382;50.200;8.674;2023-02-27T19:31:40;101476.38;;;4.46;43.93
45323;BME280;31382;50.200;8.674;2023-02-27T19:36:42;101476.72;;;4.42;44.32
45323;BME280;31382;50.200;8.674;2023-02-27T19:41:43;101485.78;;;4.39;44.92
45323;BME280;31382;50.200;8.674;2023-02-27T19:46:45;101487.91;;;4.34;44.68
45323;BME280;31382;50.200;8.674;2023-02-27T19:51:51;101495.34;;;4.42;45.23
45323;BME280;31382;50.200;8.674;2023-02-27T19:56:52;101495.69;;;4.37;45.15
45323;BME280;31382;50.200;8.674;2023-02-27T20:01:54;101495.44;;;4.40;45.71
45323;BME280;31382;50.200;8.674;2023-02-27T20:06:56;101502.16;;;4.46;45.92
45323;BME280;31382;50.200;8.674;2023-02-27T20:11:57;101506.94;;;4.53;45.19
45323;BME280;31382;50.200;8.674;2023-02-27T20:17:01;101505.13;;;4.54;45.77
45323;BME280;31382;50.200;8.674;2023-02-27T20:22:03;101503.53;;;4.51;45.96
45323;BME280;31382;50.200;8.674;2023-02-27T20:27:05;101506.84;;;4.55;46.24
45323;BME280;31382;50.200;8.674;2023-02-27T20:32:07;101507.16;;;4.63;46.22
45323;BME280;31382;50.200;8.674;2023-02-27T20:37:09;101499.41;;;4.60;46.53
45323;BME280;31382;50.200;8.674;2023-02-27T20:42:11;101494.28;;;4.57;46.55
45323;BME280;31382;50.200;8.674;2023-02-27T20:47:14;101491.72;;;4.55;46.95
45323;BME280;31382;50.200;8.674;2023-02-27T20:52:15;101494.28;;;4.57;46.61
45323;BME280;31382;50.200;8.674;2023-02-27T20:57:17;101501.53;;;4.55;47.23
45323;BME280;31382;50.200;8.674;2023-02-27T21:02:18;101493.31;;;4.58;47.74
45323;BME280;31382;50.200;8.674;2023-02-27T21:07:20;101495.22;;;4.56;47.57
45323;BME280;31382;50.200;8.674;2023-02-27T21:12:24;101499.50;;;4.59;47.77
45323;BME280;31382;50.200;8.674;2023-02-27T21:17:25;101506.09;;;4.53;47.96
45323;BME280;31382;50.200;8.674;2023-02-27T21:22:27;101498.44;;;4.48;48.25
45323;BME280;31382;50.200;8.674;2023-02-27T21:27:29;101493.22;;;4.47;48.13
45323;BME280;31382;50.200;8.674;2023-02-27T21:32:30;101489.69;;;4.46;48.59
45323;BME280;31382;50.200;8.674;2023-02-27T21:37:32;101480.34;;;4.41;48.40
45323;BME280;31382;50.200;8.674;2023-02-27T21:42:33;101488.34;;;4.28;49.05
45323;BME280;31382;50.200;8.674;2023-02-27T21:47:34;101487.19;;;4.19;49.07
45323;BME280;31382;50.200;8.674;2023-02-27T21:52:36;101488.66;;;4.10;49.42
45323;BME280;31382;50.200;8.674;2023-02-27T21:57:38;101488.78;;;4.09;49.51
45323;BME280;31382;50.200;8.674;2023-02-27T22:02:39;101483.34;;;3.97;49.50
45323;BME280;31382;50.200;8.674;2023-02-27T22:07:41;101488.09;;;3.92;49.78
45323;BME280;31382;50.200;8.674;2023-02-27T22:12:42;101484.41;;;3.95;49.57
45323;BME280;31382;50.200;8.674;2023-02-27T22:17:44;101491.50;;;3.94;49.44
45323;BME280;31382;50.200;8.674;2023-02-27T22:22:45;101494.16;;;3.94;49.37
45323;BME280;31382;50.200;8.674;2023-02-27T22:27:47;101491.19;;;3.86;49.52
45323;BME280;31382;50.200;8.674;2023-02-27T22:32:48;101485.63;;;3.76;49.72
45323;BME280;31382;50.200;8.674;2023-02-27T22:37:50;101491.28;;;3.72;49.90
45323;BME280;31382;50.200;8.674;2023-02-27T22:42:51;101489.69;;;3.69;50.41
45323;BME280;31382;50.200;8.674;2023-02-27T22:47:52;101485.50;;;3.65;50.56
45323;BME280;31382;50.200;8.674;2023-02-27T22:52:54;101485.81;;;3.61;50.43
45323;BME280;31382;50.200;8.674;2023-02-27T22:57:55;101482.91;;;3.51;50.37
45323;BME280;31382;50.200;8.674;2023-02-27T23:02:58;101485.38;;;3.54;51.32
45323;BME280;31382;50.200;8.674;2023-02-27T23:07:59;101486.41;;;3.51;51.46
45323;BME280;31382;50.200;8.674;2023-02-27T23:13:00;101493.56;;;3.51;51.26
45323;BME280;31382;50.200;8.674;2023-02-27T23:18:03;101486.97;;;3.44;52.10
45323;BME280;31382;50.200;8.674;2023-02-27T23:23:06;101493.78;;;3.48;51.72
45323;BME280;31382;50.200;8.674;2023-02-27T23:28:07;101493.78;;;3.48;51.97
45323;BME280;31382;50.200;8.674;2023-02-27T23:33:09;101488.13;;;3.52;51.82
45323;BME280;31382;50.200;8.674;2023-02-27T23:38:10;101496.03;;;3.54;52.56
45323;BME280;31382;50.200;8.674;2023-02-27T23:43:12;101487.28;;;3.52;52.60
45323;BME280;31382;50.200;8.674;2023-02-27T23:48:14;101489.22;;;3.50;52.36
45323;BME280;31382;50.200;8.674;2023-02-27T23:53:15;101485.16;;;3.44;52.46
45323;BME280;31382;50.200;8.674;2023-02-27T23:58:17;101490.88;;;3.38;52.55
